Time;durP1;ratioP1;P1;durP2;ratioP2;P2;SDS_P1;SDS_P2;PMS_P1;PMS_P2;Temp;Humidity;BMP_temperature;BMP_pressure;BME280_temperature;BME280_humidity;BME280_pressure;Samples;Min_cycle;Max_cycle;Signal;HPM_P1;HPM_P2
2021/01/31 00:01:14;;;;;;;9.32;3.75;;;;;;;3.26;64.44;98837.00;5017835;28;20565;-76
2021/01/31 00:03:41;;;;;;;9.07;4.32;;;;;;;3.02;65.44;98832.50;5016617;28;20064;-75
2021/01/31 00:06:08;;;;;;;12.30;3.80;;;;;;;3.08;65.63;98829.09;5031604;28;20041;-76
2021/01/31 00:08:34;;;;;;;11.40;3.83;;;;;;;3.39;64.30;98841.41;5032061;28;20139;-77
2021/01/31 00:11:01;;;;;;;10.25;4.50;;;;;;;3.42;63.94;98841.44;5013724;28;20099;-75
2021/01/31 00:13:29;;;;;;;15.82;4.20;;;;;;;3.58;63.65;98839.81;5018622;28;20128;-75
2021/01/31 00:15:56;;;;;;;13.93;5.00;;;;;;;3.24;64.33;98835.25;5029535;28;20111;-75
2021/01/31 00:18:29;;;;;;;7.95;3.85;;;;;;;3.44;64.04;98833.69;5019766;28;20041;-76
2021/01/31 00:20:56;;;;;;;;;;;;;;;3.42;64.05;98836.25;5024614;28;20037;-76
2021/01/31 00:23:23;;;;;;;13.75;3.65;;;;;;;3.39;64.34;98828.50;5018970;28;20868;-77
2021/01/31 00:25:50;;;;;;;17.38;3.65;;;;;;;3.45;63.57;98838.03;5002480;28;20485;-76
2021/01/31 00:28:19;;;;;;;16.08;3.58;;;;;;;3.40;63.53;98842.28;5018354;28;20136;-75
2021/01/31 00:30:47;;;;;;;19.80;4.32;;;;;;;3.07;65.13;98843.72;5020273;28;20506;-78
2021/01/31 00:33:21;;;;;;;12.10;4.22;;;;;;;3.03;65.40;98839.38;5000226;28;20445;-75
2021/01/31 00:35:49;;;;;;;11.63;4.30;;;;;;;3.01;65.96;98842.81;5019371;28;20140;-75
2021/01/31 00:38:19;;;;;;;16.98;4.20;;;;;;;3.07;65.67;98846.31;5013919;28;20059;-77
2021/01/31 00:40:46;;;;;;;10.25;3.90;;;;;;;3.05;65.51;98847.16;5018407;28;20050;-75
2021/01/31 00:43:14;;;;;;;11.82;4.55;;;;;;;3.52;64.17;98842.34;5016474;28;20068;-76
2021/01/31 00:45:41;;;;;;;14.82;4.93;;;;;;;3.22;64.33;98852.44;5017191;28;20124;-75
2021/01/31 00:48:08;;;;;;;24.10;5.03;;;;;;;3.13;64.41;98848.06;5015783;28;20559;-75
2021/01/31 00:50:37;;;;;;;13.43;3.97;;;;;;;3.26;64.22;98847.31;5014764;28;20057;-75
2021/01/31 00:53:06;;;;;;;13.35;4.20;;;;;;;3.21;63.78;98841.28;5030793;28;20400;-75
2021/01/31 00:55:34;;;;;;;17.27;4.82;;;;;;;3.34;63.22;98840.53;5022608;28;20122;-76
2021/01/31 00:58:01;;;;;;;9.40;3.83;;;;;;;3.45;63.05;98841.44;4996141;28;20041;-75
2021/01/31 01:00:30;;;;;;;16.27;4.25;;;;;;;3.25;63.40;98847.31;5018565;28;20053;-75
2021/01/31 01:02:57;;;;;;;12.18;4.43;;;;;;;2.96;64.73;98837.63;5013129;28;20114;-76
2021/01/31 01:05:27;;;;;;;11.55;3.88;;;;;;;2.99;64.23;98844.50;5017904;28;20084;-76
2021/01/31 01:07:54;;;;;;;10.90;4.45;;;;;;;3.18;63.39;98841.25;4994093;28;20095;-77
2021/01/31 01:10:24;;;;;;;10.23;4.45;;;;;;;3.16;63.44;98855.00;5019281;28;20049;-76
2021/01/31 01:12:52;;;;;;;14.43;5.75;;;;;;;3.17;63.55;98841.22;5000509;28;20045;-76
2021/01/31 01:15:21;;;;;;;14.73;4.40;;;;;;;3.24;63.52;98849.03;5015072;28;20417;-76
2021/01/31 01:17:48;;;;;;;19.35;5.28;;;;;;;3.29;63.37;98849.06;5001175;28;20054;-75
2021/01/31 01:20:15;;;;;;;10.40;4.70;;;;;;;3.13;63.34;98849.78;5014747;28;20143;-76
2021/01/31 01:22:43;;;;;;;22.33;4.22;;;;;;;3.22;63.19;98855.03;5000845;28;20127;-76
2021/01/31 01:25:13;;;;;;;12.18;4.47;;;;;;;3.11;63.68;98848.94;5015902;28;20068;-76
2021/01/31 01:27:40;;;;;;;10.02;4.55;;;;;;;3.30;62.85;98856.84;5000793;28;20111;-76
2021/01/31 01:30:09;;;;;;;15.50;4.97;;;;;;;3.04;63.34;98843.72;5011554;28;20049;-76
2021/01/31 01:32:37;;;;;;;14.00;4.85;;;;;;;3.24;62.93;98843.00;5017590;28;20327;-76
2021/01/31 01:35:08;;;;;;;16.08;4.15;;;;;;;3.08;63.75;98836.84;4988851;28;20048;-76
2021/01/31 01:37:34;;;;;;;14.02;4.38;;;;;;;3.13;63.48;98830.00;5014938;28;21877;-76
2021/01/31 01:40:08;;;;;;;14.18;5.10;;;;;;;3.34;62.85;98835.34;5013946;28;20041;-76
2021/01/31 01:42:35;;;;;;;16.73;4.70;;;;;;;3.00;63.54;98828.19;5030097;28;20061;-76
2021/01/31 01:45:01;;;;;;;17.08;4.50;;;;;;;2.90;64.11;98834.13;5019022;28;20100;-75
2021/01/31 01:47:29;;;;;;;14.70;4.95;;;;;;;3.08;63.61;98847.16;5003494;28;20046;-76
2021/01/31 01:50:32;;;;;;;14.15;4.65;;;;;;;2.93;63.92;98839.28;5009590;28;20049;-76
2021/01/31 01:53:00;;;;;;;10.18;4.30;;;;;;;2.81;63.95;98842.63;5011193;28;20148;-76
2021/01/31 01:55:32;;;;;;;12.95;4.65;;;;;;;2.95;63.75;98845.34;4999627;28;20458;-76
2021/01/31 01:58:05;;;;;;;17.58;5.13;;;;;;;2.79;64.66;98841.75;5017791;28;20445;-76
2021/01/31 02:00:33;;;;;;;14.52;5.53;;;;;;;3.36;63.08;98843.09;5016848;28;20119;-75
2021/01/31 02:03:08;;;;;;;15.57;4.20;;;;;;;3.50;62.48;98836.34;5010355;28;20133;-76
2021/01/31 02:05:38;;;;;;;17.83;5.10;;;;;;;3.20;63.46;98844.72;5018912;28;20053;-75
2021/01/31 02:08:05;;;;;;;16.55;4.88;;;;;;;3.38;62.93;98831.06;5018001;28;20059;-76
2021/01/31 02:10:32;;;;;;;18.33;5.43;;;;;;;3.15;63.51;98830.91;5008416;28;20077;-76
2021/01/31 02:13:03;;;;;;;11.43;5.32;;;;;;;3.35;63.32;98818.16;5018472;28;20045;-76
2021/01/31 02:15:30;;;;;;;15.55;4.30;;;;;;;3.29;63.39;98825.84;5014624;28;20128;-76
2021/01/31 02:18:09;;;;;;;9.50;4.68;;;;;;;3.19;63.51;98822.31;5013167;28;20469;-75
2021/01/31 02:20:54;;;;;;;12.60;4.32;;;;;;;3.36;63.66;98805.22;5015680;28;20060;-76
2021/01/31 02:23:23;;;;;;;17.15;4.30;;;;;;;3.34;63.33;98808.69;5027476;28;20037;-77
2021/01/31 02:26:09;;;;;;;20.13;5.05;;;;;;;3.26;63.79;98797.44;5013241;28;20513;-76
2021/01/31 02:28:46;;;;;;;16.20;4.40;;;;;;;3.43;63.48;98801.00;5030895;28;21093;-76
2021/01/31 02:31:23;;;;;;;15.73;4.57;;;;;;;3.01;64.22;98805.00;5002811;28;20065;-76
2021/01/31 02:34:09;;;;;;;18.02;4.80;;;;;;;3.30;63.53;98805.22;5017603;28;20091;-76
2021/01/31 02:36:43;;;;;;;12.30;5.10;;;;;;;3.32;63.57;98802.63;5010869;28;20489;-76
2021/01/31 02:39:34;;;;;;;7.47;4.70;;;;;;;3.45;63.41;98797.53;5032230;28;20141;-77
2021/01/31 02:42:06;;;;;;;16.45;4.80;;;;;;;3.57;62.88;98789.03;5011045;28;20125;-76
2021/01/31 02:44:39;;;;;;;13.10;4.60;;;;;;;3.52;62.85;98790.72;5016737;28;20057;-76
2021/01/31 02:47:12;;;;;;;14.50;6.30;;;;;;;3.33;63.41;98806.94;5015901;28;20384;-77
2021/01/31 02:49:49;;;;;;;12.75;4.70;;;;;;;3.48;62.99;98812.22;5029185;28;20421;-76
2021/01/31 02:52:21;;;;;;;10.85;5.13;;;;;;;3.39;63.49;98822.47;5014054;28;20460;-77
2021/01/31 02:55:00;;;;;;;10.82;5.40;;;;;;;3.45;63.01;98813.03;5021465;28;20037;-76
2021/01/31 02:57:36;;;;;;;19.75;5.40;;;;;;;3.46;63.35;98812.19;5021239;28;20045;-76
2021/01/31 03:00:24;;;;;;;15.45;5.10;;;;;;;3.33;63.45;98807.81;5021983;28;20041;-76
2021/01/31 03:03:02;;;;;;;22.42;5.72;;;;;;;3.08;64.10;98803.31;5015659;28;20120;-76
2021/01/31 03:05:42;;;;;;;10.93;5.18;;;;;;;3.39;63.04;98789.78;5020904;28;20064;-76
2021/01/31 03:08:18;;;;;;;17.63;4.88;;;;;;;3.41;62.74;98788.06;5029462;28;20045;-75
2021/01/31 03:11:08;;;;;;;16.75;5.25;;;;;;;3.18;63.12;98797.38;5022457;28;20041;-76
2021/01/31 03:13:40;;;;;;;14.88;4.75;;;;;;;3.13;62.82;98788.72;5027771;28;20489;-76
2021/01/31 03:16:12;;;;;;;14.02;5.47;;;;;;;3.20;62.54;98781.91;5022180;28;20072;-76
2021/01/31 03:18:43;;;;;;;;;;;;;;;3.05;62.92;98785.22;5033485;28;20080;-76
2021/01/31 03:21:32;;;;;;;17.63;5.10;;;;;;;2.85;63.17;98790.22;5017375;28;19928;-76
2021/01/31 03:24:18;;;;;;;9.48;5.40;;;;;;;2.73;63.99;98797.00;5015470;28;20077;-76
2021/01/31 03:26:53;;;;;;;13.48;5.13;;;;;;;2.79;63.83;98808.22;5021905;28;20238;-76
2021/01/31 03:29:20;;;;;;;10.05;5.68;;;;;;;2.51;65.25;98812.25;5016193;28;20465;-76
2021/01/31 03:31:52;;;;;;;18.33;5.78;;;;;;;2.42;65.86;98817.31;5018273;28;20497;-76
2021/01/31 03:34:24;;;;;;;15.88;6.10;;;;;;;2.74;64.65;98804.72;5025521;28;20196;-77
2021/01/31 03:36:56;;;;;;;14.82;6.50;;;;;;;2.96;63.81;98803.22;5018022;28;20456;-76
2021/01/31 03:39:24;;;;;;;23.30;5.82;;;;;;;3.00;63.46;98802.38;5012127;28;20099;-76
2021/01/31 03:41:51;;;;;;;15.30;5.55;;;;;;;2.76;63.92;98799.59;5019523;28;20195;-77
2021/01/31 03:44:18;;;;;;;11.05;5.47;;;;;;;2.90;63.56;98785.09;5034895;28;20098;-76
2021/01/31 03:47:06;;;;;;;16.67;6.13;;;;;;;2.64;63.97;98787.44;5016521;28;20048;-76
2021/01/31 03:49:57;;;;;;;15.02;5.22;;;;;;;2.77;63.27;98784.16;5032183;28;20065;-76
2021/01/31 03:52:28;;;;;;;13.38;5.10;;;;;;;2.60;63.32;98783.09;5018666;28;20132;-76
2021/01/31 03:54:54;;;;;;;14.57;4.88;;;;;;;2.60;63.56;98778.81;5013700;28;20053;-76
2021/01/31 03:57:24;;;;;;;12.77;5.18;;;;;;;2.45;63.15;98772.63;5020096;28;20405;-76
2021/01/31 03:59:55;;;;;;;10.98;5.00;;;;;;;2.68;63.43;98766.00;5033924;28;20073;-76
2021/01/31 04:02:29;;;;;;;15.73;5.70;;;;;;;2.54;63.59;98765.88;5013973;28;20077;-76
2021/01/31 04:04:57;;;;;;;17.35;5.03;;;;;;;2.51;63.57;98767.56;4998279;28;20364;-76
2021/01/31 04:07:31;;;;;;;14.55;5.60;;;;;;;2.53;63.57;98765.88;5017337;28;20334;-76
2021/01/31 04:10:01;;;;;;;12.02;4.88;;;;;;;2.39;63.77;98764.88;5015557;28;20136;-76
2021/01/31 04:12:33;;;;;;;16.67;6.28;;;;;;;2.58;63.58;98754.75;4999171;28;20049;-76
2021/01/31 04:15:18;;;;;;;12.70;5.95;;;;;;;2.51;63.71;98757.25;5018013;28;20046;-75
2021/01/31 04:17:49;;;;;;;13.00;5.05;;;;;;;2.26;64.12;98760.41;5026690;28;20356;-77
2021/01/31 04:20:16;;;;;;;13.65;5.47;;;;;;;2.15;64.64;98758.63;5031648;28;20053;-76
2021/01/31 04:22:43;;;;;;;11.63;5.53;;;;;;;2.18;64.27;98760.34;5013000;28;20053;-76
2021/01/31 04:25:10;;;;;;;15.38;6.10;;;;;;;2.13;64.78;98752.56;5001122;28;20134;-75
2021/01/31 04:27:37;;;;;;;15.20;5.82;;;;;;;2.18;64.41;98760.34;5014255;28;20139;-77
2021/01/31 04:30:06;;;;;;;15.88;6.18;;;;;;;2.49;63.36;98754.69;5018312;28;20141;-76
2021/01/31 04:32:32;;;;;;;12.43;5.95;;;;;;;2.25;63.92;98756.13;5030344;28;20041;-76
2021/01/31 04:34:59;;;;;;;14.93;6.35;;;;;;;2.15;65.39;98752.59;5001336;28;20514;-77
2021/01/31 04:37:25;;;;;;;20.98;6.57;;;;;;;2.74;63.32;98737.69;5014451;28;20068;-76
2021/01/31 04:39:51;;;;;;;19.38;6.85;;;;;;;1.97;65.09;98737.78;5027910;28;20428;-77
2021/01/31 04:42:20;;;;;;;13.13;6.07;;;;;;;2.23;64.23;98734.63;5015919;28;20068;-77
2021/01/31 04:44:50;;;;;;;15.70;5.80;;;;;;;2.50;63.78;98732.31;5018644;28;20077;-77
2021/01/31 04:47:28;;;;;;;18.77;6.28;;;;;;;1.93;64.37;98730.00;5016284;28;20045;-76
2021/01/31 04:50:14;;;;;;;15.35;6.13;;;;;;;2.13;64.30;98739.69;5017933;28;20073;-77
2021/01/31 04:52:56;;;;;;;14.85;6.28;;;;;;;2.13;64.47;98738.81;5013705;28;20045;-76
2021/01/31 04:55:37;;;;;;;16.70;7.10;;;;;;;2.17;64.01;98738.88;5033664;28;20424;-76
2021/01/31 04:58:14;;;;;;;12.55;6.32;;;;;;;2.32;64.01;98730.44;5011981;28;20092;-76
2021/01/31 05:00:51;;;;;;;18.80;8.05;;;;;;;1.93;66.58;98728.31;5012783;28;20045;-76
2021/01/31 05:03:20;;;;;;;20.17;6.47;;;;;;;2.30;65.14;98732.16;5013807;28;20534;-76
2021/01/31 05:05:56;;;;;;;16.15;7.50;;;;;;;2.60;63.95;98726.38;5017346;28;20050;-76
2021/01/31 05:08:26;;;;;;;15.65;7.15;;;;;;;2.47;64.33;98727.13;5013202;28;20091;-74
2021/01/31 05:10:58;;;;;;;12.93;5.95;;;;;;;2.48;64.08;98721.13;5014538;28;20041;-77
2021/01/31 05:13:54;;;;;;;14.88;6.65;;;;;;;2.30;64.23;98711.53;5014002;28;20144;-77
2021/01/31 05:16:22;;;;;;;13.05;5.63;;;;;;;2.45;63.59;98709.06;5012770;28;20139;-76
2021/01/31 05:18:56;;;;;;;17.42;6.00;;;;;;;2.26;63.14;98707.16;5015224;28;20133;-77
2021/01/31 05:21:28;;;;;;;15.25;6.03;;;;;;;2.37;63.44;98703.00;5012848;28;20080;-76
2021/01/31 05:23:59;;;;;;;17.60;7.82;;;;;;;2.36;63.35;98700.38;5012413;28;20120;-77
2021/01/31 05:26:26;;;;;;;15.35;5.57;;;;;;;2.10;64.25;98703.59;5033461;28;20417;-78
2021/01/31 05:29:00;;;;;;;16.95;6.30;;;;;;;2.12;64.28;98698.44;5011114;28;20523;-78
2021/01/31 05:31:31;;;;;;;16.38;6.43;;;;;;;1.90;64.71;98696.50;5021210;28;20354;-77
2021/01/31 05:33:59;;;;;;;17.60;6.10;;;;;;;2.08;64.36;98691.53;5015397;28;20049;-79
2021/01/31 05:36:28;;;;;;;19.52;6.63;;;;;;;2.33;64.08;98692.66;5017095;28;20123;-76
2021/01/31 05:38:56;;;;;;;14.15;6.32;;;;;;;2.27;64.28;98696.03;5026367;28;20041;-77
2021/01/31 05:41:25;;;;;;;19.08;6.45;;;;;;;2.21;64.72;98688.22;5014380;28;20137;-78
2021/01/31 05:43:57;;;;;;;18.35;7.15;;;;;;;2.23;64.20;98685.69;5012306;28;20095;-76
2021/01/31 05:46:31;;;;;;;;;;;;;;;2.21;64.56;98682.25;5015429;28;20064;-77
2021/01/31 05:48:58;;;;;;;14.00;6.43;;;;;;;2.30;64.32;98677.16;5018542;28;20033;-77
2021/01/31 05:51:33;;;;;;;20.52;6.28;;;;;;;2.30;63.72;98677.16;5016051;28;20079;-77
2021/01/31 05:54:19;;;;;;;13.05;6.80;;;;;;;2.24;63.46;98677.09;5017268;28;20041;-77
2021/01/31 05:56:47;;;;;;;16.77;6.60;;;;;;;2.06;63.61;98678.63;5012897;28;20073;-76
2021/01/31 05:59:15;;;;;;;13.60;5.40;;;;;;;2.02;63.46;98673.44;5016550;28;20055;-77
2021/01/31 06:02:02;;;;;;;12.60;5.50;;;;;;;1.65;64.48;98673.06;5026938;28;20085;-77
2021/01/31 06:04:28;;;;;;;12.23;5.38;;;;;;;1.77;63.71;98677.50;5035600;28;20092;-77
2021/01/31 06:07:11;;;;;;;13.70;5.78;;;;;;;1.95;63.37;98663.94;5013193;28;20053;-77
2021/01/31 06:09:42;;;;;;;27.20;5.80;;;;;;;1.66;64.50;98661.06;5018356;28;20157;-76
2021/01/31 06:12:29;;;;;;;14.50;5.82;;;;;;;1.75;64.57;98656.88;5015707;28;20423;-77
2021/01/31 06:15:18;;;;;;;15.10;5.15;;;;;;;1.78;64.74;98645.72;5032286;28;20045;-77
2021/01/31 06:17:55;;;;;;;12.95;6.57;;;;;;;2.18;63.52;98640.13;4998247;28;20195;-76
2021/01/31 06:20:30;;;;;;;15.32;7.03;;;;;;;2.21;63.43;98630.72;5021460;28;20057;-76
2021/01/31 06:22:57;;;;;;;15.43;6.35;;;;;;;2.02;63.84;98630.53;5008970;28;20488;-77
2021/01/31 06:25:42;;;;;;;17.70;6.38;;;;;;;2.18;63.46;98624.66;5029567;28;20400;-77
2021/01/31 06:28:09;;;;;;;15.38;7.55;;;;;;;2.00;63.18;98626.22;5018657;28;20045;-76
2021/01/31 06:30:42;;;;;;;19.25;7.13;;;;;;;1.89;63.61;98620.97;5018686;28;20136;-77
2021/01/31 06:33:09;;;;;;;11.38;5.63;;;;;;;2.02;63.55;98627.94;5020071;28;20045;-75
2021/01/31 06:35:36;;;;;;;23.88;6.53;;;;;;;2.09;63.00;98626.28;5020651;28;20053;-74
2021/01/31 06:38:50;;;;;;;12.68;6.28;;;;;;;1.82;64.64;98621.75;5018299;28;20493;-74
2021/01/31 06:41:35;;;;;;;11.57;5.57;;;;;;;2.06;63.89;98621.97;5013421;28;20061;-75
2021/01/31 06:44:08;;;;;;;17.00;6.75;;;;;;;2.17;63.79;98616.91;5017023;28;20048;-74
2021/01/31 06:46:37;;;;;;;17.15;8.57;;;;;;;2.07;64.46;98620.25;5021287;28;20056;-77
2021/01/31 06:49:30;;;;;;;23.13;6.95;;;;;;;2.29;64.06;98618.75;5015125;28;20057;-77
2021/01/31 06:52:12;;;;;;;26.20;6.88;;;;;;;2.27;63.52;98608.41;5019202;28;20052;-75
2021/01/31 06:54:44;;;;;;;11.90;6.00;;;;;;;2.11;64.09;98615.13;5032104;28;20057;-76
2021/01/31 06:57:23;;;;;;;17.88;7.63;;;;;;;1.96;64.63;98615.03;5032882;28;20509;-76
2021/01/31 07:00:14;;;;;;;13.85;7.22;;;;;;;2.32;63.69;98601.59;5014069;28;20063;-75
2021/01/31 07:02:49;;;;;;;17.70;7.07;;;;;;;2.34;63.24;98599.91;5021732;28;20451;-76
2021/01/31 07:05:38;;;;;;;15.13;7.30;;;;;;;2.26;63.50;98592.94;5036449;28;20153;-75
2021/01/31 07:08:32;;;;;;;18.30;6.78;;;;;;;2.35;63.11;98595.59;5015952;28;20053;-75
2021/01/31 07:11:25;;;;;;;15.68;7.30;;;;;;;2.32;63.37;98598.13;5021101;28;20147;-76
2021/01/31 07:13:54;;;;;;;15.65;6.07;;;;;;;2.35;63.43;98596.44;5014930;28;20140;-75
2021/01/31 07:16:20;;;;;;;20.13;7.82;;;;;;;2.32;63.53;98583.53;5023726;28;20477;-75
2021/01/31 07:18:59;;;;;;;20.77;8.50;;;;;;;2.35;63.77;98586.13;5011822;28;20128;-78
2021/01/31 07:21:41;;;;;;;17.30;7.53;;;;;;;2.14;64.07;98585.97;5002470;28;20473;-75
2021/01/31 07:24:44;;;;;;;18.23;9.27;;;;;;;2.33;63.85;98587.84;5014048;28;20060;-76
2021/01/31 07:27:34;;;;;;;18.55;8.10;;;;;;;2.22;63.52;98581.75;4997751;28;20048;-75
2021/01/31 07:30:21;;;;;;;17.33;7.93;;;;;;;2.21;63.27;98577.44;5029454;28;20140;-75
2021/01/31 07:33:00;;;;;;;26.02;7.57;;;;;;;2.00;63.84;98579.84;5032435;28;20053;-78
2021/01/31 07:39:57;;;;;;;17.13;7.60;;;;;;;2.17;63.93;98571.41;5010470;28;20052;-75
2021/01/31 07:42:26;;;;;;;18.83;7.72;;;;;;;2.29;63.62;98575.81;5034274;28;20152;-74
2021/01/31 07:45:21;;;;;;;16.77;7.75;;;;;;;2.10;64.57;98572.22;5014934;28;20452;-75
2021/01/31 07:47:49;;;;;;;22.13;8.30;;;;;;;1.82;64.41;98566.81;5019534;28;20045;-75
2021/01/31 07:50:35;;;;;;;14.55;7.85;;;;;;;2.08;63.52;98566.19;5011425;28;20054;-77
2021/01/31 07:53:04;;;;;;;16.45;7.63;;;;;;;1.89;63.35;98566.00;5013545;28;20071;-76
2021/01/31 07:55:43;;;;;;;23.92;8.32;;;;;;;2.07;63.11;98561.88;5014276;28;20065;-78
2021/01/31 07:58:25;;;;;;;15.20;7.80;;;;;;;1.82;63.16;98571.97;5017780;28;20127;-75
2021/01/31 08:00:54;;;;;;;19.83;8.52;;;;;;;1.80;63.44;98566.78;5012570;28;20037;-76
2021/01/31 08:03:36;;;;;;;19.98;7.28;;;;;;;2.08;62.78;98562.75;5019862;28;20071;-76
2021/01/31 08:06:18;;;;;;;19.90;7.63;;;;;;;2.17;62.76;98566.25;5002754;28;20134;-75
2021/01/31 08:08:49;;;;;;;16.10;7.43;;;;;;;2.07;63.63;98563.59;5021465;28;20053;-76
2021/01/31 08:11:16;;;;;;;19.00;8.07;;;;;;;2.40;63.13;98566.41;5027717;28;20326;-76
2021/01/31 08:13:50;;;;;;;15.63;8.05;;;;;;;2.37;63.99;98558.66;5016841;28;20583;-76
2021/01/31 08:16:48;;;;;;;20.88;9.98;;;;;;;2.64;64.03;98560.53;5025541;28;20121;-75
2021/01/31 08:19:17;;;;;;;19.67;10.73;;;;;;;2.81;63.82;98551.19;5020325;28;20400;-75
2021/01/31 08:21:55;;;;;;;22.60;10.80;;;;;;;2.87;63.32;98543.50;5015180;28;20063;-75
2021/01/31 08:25:00;;;;;;;24.65;10.45;;;;;;;3.06;64.04;98529.81;5019405;28;20420;-75
2021/01/31 08:27:42;;;;;;;22.63;9.32;;;;;;;3.02;64.48;98527.22;5012813;28;20369;-75
2021/01/31 08:30:14;;;;;;;26.58;10.07;;;;;;;3.59;63.55;98528.22;5034140;28;20966;-77
2021/01/31 08:32:59;;;;;;;26.45;10.38;;;;;;;3.90;63.49;98522.22;5014300;28;20045;-75
2021/01/31 08:35:41;;;;;;;17.17;10.18;;;;;;;3.78;62.78;98525.69;5031468;28;20045;-77
2021/01/31 08:38:20;;;;;;;27.05;9.98;;;;;;;3.84;62.73;98525.66;5024802;28;20485;-76
2021/01/31 08:40:58;;;;;;;14.50;7.55;;;;;;;4.16;63.48;98528.25;5018258;28;20049;-76
2021/01/31 08:43:37;;;;;;;18.10;9.02;;;;;;;4.63;64.27;98533.34;5014735;28;20049;-76
2021/01/31 08:46:05;;;;;;;19.73;10.25;;;;;;;4.93;64.64;98531.53;5014790;28;20065;-76
2021/01/31 08:48:32;;;;;;;19.92;10.60;;;;;;;5.17;64.07;98526.25;5013564;28;20041;-75
2021/01/31 08:51:13;;;;;;;15.70;9.63;;;;;;;5.33;63.35;98532.19;5017776;28;20073;-77
2021/01/31 08:53:40;;;;;;;23.60;11.27;;;;;;;5.48;63.58;98527.81;5013413;28;20046;-75
2021/01/31 08:56:19;;;;;;;21.15;10.43;;;;;;;5.70;63.36;98513.00;5018336;28;20045;-76
2021/01/31 08:58:46;;;;;;;17.65;11.45;;;;;;;5.89;63.47;98511.16;5014647;28;20057;-78
2021/01/31 09:01:13;;;;;;;23.58;13.20;;;;;;;6.11;63.93;98504.91;5020099;28;20060;-75
2021/01/31 09:03:42;;;;;;;24.60;13.63;;;;;;;6.24;63.40;98506.53;5013764;28;20127;-75
2021/01/31 09:06:09;;;;;;;23.40;12.48;;;;;;;6.27;62.47;98505.66;5017719;28;20103;-75
2021/01/31 09:08:42;;;;;;;21.23;11.35;;;;;;;6.20;61.26;98503.97;4997920;28;20392;-75
2021/01/31 09:11:16;;;;;;;16.50;9.02;;;;;;;6.05;60.15;98508.41;5017584;28;20056;-78
2021/01/31 09:13:42;;;;;;;31.40;15.57;;;;;;;5.83;59.74;98506.00;5027520;28;20050;-76
2021/01/31 09:16:22;;;;;;;89.13;44.90;;;;;;;5.97;60.00;98510.22;5019492;28;20053;-76
2021/01/31 09:19:07;;;;;;;40.20;18.38;;;;;;;6.02;61.13;98505.88;5028013;28;20123;-76
2021/01/31 09:21:35;;;;;;;18.98;10.98;;;;;;;6.26;60.71;98485.78;5018619;28;20046;-78
2021/01/31 09:24:08;;;;;;;15.77;10.15;;;;;;;6.50;60.38;98477.75;4997928;28;20053;-76
2021/01/31 09:26:34;;;;;;;22.60;10.68;;;;;;;6.77;61.36;98480.03;5016258;28;20523;-76
2021/01/31 09:29:07;;;;;;;19.92;12.38;;;;;;;7.04;62.19;98477.97;4993257;28;20357;-75
2021/01/31 09:31:37;;;;;;;25.80;12.07;;;;;;;7.22;61.63;98476.00;5018231;28;20037;-76
2021/01/31 09:34:05;;;;;;;24.10;12.40;;;;;;;7.35;61.89;98468.88;4994263;28;20086;-76
2021/01/31 09:36:34;;;;;;;26.17;13.15;;;;;;;7.51;61.77;98469.53;5019119;28;20061;-75
2021/01/31 09:39:06;;;;;;;32.08;17.17;;;;;;;7.62;61.26;98468.50;5016722;28;20049;-75
2021/01/31 09:41:34;;;;;;;22.80;11.82;;;;;;;7.67;58.41;98460.63;5015542;28;20396;-75
2021/01/31 09:44:04;;;;;;;19.20;8.57;;;;;;;7.74;59.19;98460.50;5017695;28;20041;-75
2021/01/31 09:46:33;;;;;;;18.92;7.63;;;;;;;7.60;55.22;98459.84;5012536;28;20438;-75
2021/01/31 09:49:17;;;;;;;12.80;5.55;;;;;;;7.23;55.61;98459.53;5031580;28;20119;-75
2021/01/31 09:51:44;;;;;;;21.20;6.25;;;;;;;7.10;56.02;98457.97;5010370;28;20054;-76
2021/01/31 09:54:16;;;;;;;18.02;7.80;;;;;;;7.55;55.89;98456.47;5031591;28;20045;-75
2021/01/31 09:56:55;;;;;;;19.27;6.22;;;;;;;7.62;53.86;98446.84;4990459;28;20504;-75
2021/01/31 09:59:36;;;;;;;14.32;7.30;;;;;;;7.49;53.25;98453.09;5033894;28;20053;-76
2021/01/31 10:02:10;;;;;;;16.83;6.75;;;;;;;7.48;53.40;98441.00;5025756;28;20034;-75
2021/01/31 10:04:39;;;;;;;22.83;6.68;;;;;;;7.48;53.60;98436.66;5034910;28;20060;-76
2021/01/31 10:07:07;;;;;;;14.75;6.57;;;;;;;7.57;53.61;98440.84;5018411;28;20119;-76
2021/01/31 10:09:52;;;;;;;13.10;6.00;;;;;;;7.50;54.20;98427.09;5024341;28;20056;-76
2021/01/31 10:12:28;;;;;;;19.15;6.30;;;;;;;7.44;53.34;98424.56;5016988;28;20054;-76
2021/01/31 10:15:04;;;;;;;15.63;5.20;;;;;;;7.25;52.56;98424.00;5036016;28;20503;-76
2021/01/31 10:17:45;;;;;;;22.15;7.40;;;;;;;7.35;52.64;98410.00;5019174;28;20037;-75
2021/01/31 10:20:28;;;;;;;22.10;10.00;;;;;;;6.94;54.47;98415.78;5032932;28;20060;-75
2021/01/31 10:22:59;;;;;;;32.80;13.48;;;;;;;6.50;56.36;98412.88;5019322;28;20053;-74
2021/01/31 10:25:26;;;;;;;26.88;12.48;;;;;;;7.26;54.69;98407.53;5019967;28;20057;-76
2021/01/31 10:27:57;;;;;;;32.90;15.68;;;;;;;7.34;54.90;98412.59;5014960;28;20148;-75
2021/01/31 10:30:37;;;;;;;21.98;10.88;;;;;;;7.50;53.14;98410.63;5021144;28;20103;-76
2021/01/31 10:33:05;;;;;;;23.63;9.23;;;;;;;7.35;53.58;98411.72;5028127;28;20061;-75
2021/01/31 10:35:38;;;;;;;17.60;7.00;;;;;;;6.80;53.82;98403.88;5025069;28;20049;-75
2021/01/31 10:38:29;;;;;;;25.30;9.05;;;;;;;6.42;55.25;98405.22;5020963;28;20559;-75
2021/01/31 10:40:57;;;;;;;20.98;9.77;;;;;;;6.56;55.56;98402.44;5015058;28;20046;-75
2021/01/31 10:43:25;;;;;;;28.92;12.38;;;;;;;6.36;55.96;98394.03;5015581;28;20393;-75
2021/01/31 10:45:53;;;;;;;21.08;10.15;;;;;;;6.17;56.82;98395.97;5013606;28;20461;-75
2021/01/31 10:48:20;;;;;;;26.05;10.23;;;;;;;6.45;56.01;98384.41;5015090;28;20179;-75
2021/01/31 10:50:46;;;;;;;23.20;10.75;;;;;;;6.17;57.47;98388.19;4998628;28;20240;-78
2021/01/31 10:53:13;;;;;;;26.17;8.52;;;;;;;6.73;56.39;98386.66;5030694;28;20053;-75
2021/01/31 10:55:39;;;;;;;23.13;10.07;;;;;;;6.58;55.91;98392.88;5031488;28;20111;-76
2021/01/31 10:58:06;;;;;;;21.40;8.23;;;;;;;6.50;55.99;98373.97;5033381;28;20057;-76
2021/01/31 11:00:32;;;;;;;25.98;8.40;;;;;;;6.29;56.54;98369.03;5022298;28;20128;-75
2021/01/31 11:02:59;;;;;;;17.23;8.30;;;;;;;6.37;56.22;98367.22;5017004;28;20049;-75
2021/01/31 11:05:26;;;;;;;21.88;9.88;;;;;;;6.73;55.52;98361.56;5022945;28;20114;-75
2021/01/31 11:07:53;;;;;;;19.38;10.18;;;;;;;6.80;56.41;98360.59;5016428;28;20149;-76
2021/01/31 11:10:21;;;;;;;20.42;9.20;;;;;;;6.52;56.38;98362.69;5027946;28;20048;-76
2021/01/31 11:12:47;;;;;;;22.42;9.45;;;;;;;6.11;57.85;98360.59;5019392;28;20607;-78
2021/01/31 11:15:15;;;;;;;22.90;9.50;;;;;;;6.55;56.80;98356.63;4999687;28;20053;-76
2021/01/31 11:17:42;;;;;;;20.05;8.48;;;;;;;6.55;56.50;98352.28;5017982;28;20054;-75
2021/01/31 11:20:10;;;;;;;19.40;9.75;;;;;;;6.12;57.88;98348.50;5015433;28;20061;-77
2021/01/31 11:22:37;;;;;;;20.40;7.53;;;;;;;5.96;58.01;98333.97;5016726;28;20438;-77
2021/01/31 11:25:05;;;;;;;15.98;6.97;;;;;;;5.77;58.19;98338.47;5019678;28;20053;-76
2021/01/31 11:27:32;;;;;;;12.75;6.60;;;;;;;5.53;58.94;98331.78;5015030;28;20034;-75
2021/01/31 11:29:59;;;;;;;13.57;6.93;;;;;;;5.74;58.61;98330.72;5015759;28;20496;-76
2021/01/31 11:32:25;;;;;;;24.42;8.40;;;;;;;5.76;59.10;98321.19;5018953;28;20053;-77
2021/01/31 11:34:52;;;;;;;15.10;7.25;;;;;;;5.88;58.52;98322.84;5009142;28;20484;-76
2021/01/31 11:37:19;;;;;;;16.83;7.15;;;;;;;6.13;57.72;98324.28;5037581;28;20099;-76
2021/01/31 11:39:45;;;;;;;16.02;7.28;;;;;;;6.24;57.13;98312.03;4999043;28;20061;-75
2021/01/31 11:42:12;;;;;;;19.40;6.53;;;;;;;6.26;57.37;98310.28;5014614;28;20053;-76
2021/01/31 11:44:39;;;;;;;19.52;6.65;;;;;;;6.14;57.52;98302.66;5013839;28;20054;-76
2021/01/31 11:47:06;;;;;;;19.10;7.20;;;;;;;6.12;57.41;98299.22;5021383;28;20162;-75
2021/01/31 11:49:33;;;;;;;15.50;6.85;;;;;;;6.01;57.75;98288.97;5021157;28;20095;-77
2021/01/31 11:52:00;;;;;;;14.05;6.97;;;;;;;6.03;57.85;98284.66;5014394;28;20049;-75
2021/01/31 11:54:28;;;;;;;15.43;7.38;;;;;;;6.32;57.35;98279.09;5018988;28;20049;-75
2021/01/31 11:56:55;;;;;;;18.13;9.00;;;;;;;6.36;57.32;98278.19;5013841;28;20184;-75
2021/01/31 11:59:22;;;;;;;17.83;8.98;;;;;;;5.95;58.18;98276.09;5005005;28;20043;-75
2021/01/31 12:01:48;;;;;;;22.05;10.50;;;;;;;5.90;58.70;98271.84;5029979;28;20054;-76
2021/01/31 12:04:16;;;;;;;21.20;10.35;;;;;;;6.21;58.21;98265.41;5018986;28;20123;-76
2021/01/31 12:06:43;;;;;;;18.23;10.52;;;;;;;6.80;57.52;98261.97;5014522;28;20050;-76